< < Back
Terminal Aerodrome Forecast


Current Version              Previous Versions:   1  2  3  4  5  6  7  8  9  

Terminal Aerodrome Forecast

331
FTUS44 KOHX 040500
TAFCSV
TAF
KCSV 040520Z 0406/0506 19010G17KT 2SM -RA BR OVC003
     FM041800 31007KT 2SM -RA BR OVC003
     FM050000 01010G18KT 2SM -RA BR OVC003=

Latest METAR

752
SAUS70 KWBC 040656
MTRCSV
METAR KCSV 040653Z AUTO 22008G19KT 10SM OVC007 16/14 A2993 RMK AO2
RAB05E15 CIG 006V013 SLP128 P0001 T01560139


USA.gov is the U.S. government's official web portal to all federal, state and local government web resources and services.